sensor_id;sensor_type;location;lat;lon;timestamp;P1;durP1;ratioP1;P2;durP2;ratioP2
78312;SDS011;67568;47.438;21.408;2023-10-19T00:00:09;11.85;;;4.07;;
78312;SDS011;67568;47.438;21.408;2023-10-19T00:02:36;8.38;;;3.97;;
78312;SDS011;67568;47.438;21.408;2023-10-19T00:05:11;9.57;;;4.95;;
78312;SDS011;67568;47.438;21.408;2023-10-19T00:07:39;8.60;;;3.43;;
78312;SDS011;67568;47.438;21.408;2023-10-19T00:10:06;7.47;;;3.70;;
78312;SDS011;67568;47.438;21.408;2023-10-19T00:12:35;6.05;;;3.20;;
78312;SDS011;67568;47.438;21.408;2023-10-19T00:15:03;5.25;;;3.15;;
78312;SDS011;67568;47.438;21.408;2023-10-19T00:17:30;13.02;;;4.95;;
78312;SDS011;67568;47.438;21.408;2023-10-19T00:19:57;6.30;;;3.43;;
78312;SDS011;67568;47.438;21.408;2023-10-19T00:22:24;5.95;;;2.95;;
78312;SDS011;67568;47.438;21.408;2023-10-19T00:24:51;6.95;;;3.25;;
78312;SDS011;67568;47.438;21.408;2023-10-19T00:27:17;8.00;;;3.55;;
78312;SDS011;67568;47.438;21.408;2023-10-19T00:29:44;8.50;;;4.20;;
78312;SDS011;67568;47.438;21.408;2023-10-19T00:32:11;5.73;;;3.57;;
78312;SDS011;67568;47.438;21.408;2023-10-19T00:34:38;8.00;;;3.92;;
78312;SDS011;67568;47.438;21.408;2023-10-19T00:37:05;10.00;;;4.32;;
78312;SDS011;67568;47.438;21.408;2023-10-19T00:39:31;8.52;;;2.85;;
78312;SDS011;67568;47.438;21.408;2023-10-19T00:41:59;8.10;;;4.35;;
78312;SDS011;67568;47.438;21.408;2023-10-19T00:44:30;5.57;;;4.03;;
78312;SDS011;67568;47.438;21.408;2023-10-19T00:46:57;5.65;;;3.45;;
78312;SDS011;67568;47.438;21.408;2023-10-19T00:49:24;8.30;;;3.65;;
78312;SDS011;67568;47.438;21.408;2023-10-19T00:51:52;6.43;;;3.25;;
78312;SDS011;67568;47.438;21.408;2023-10-19T00:54:23;7.05;;;3.42;;
78312;SDS011;67568;47.438;21.408;2023-10-19T00:57:00;9.83;;;4.33;;
78312;SDS011;67568;47.438;21.408;2023-10-19T00:59:27;6.30;;;3.70;;
78312;SDS011;67568;47.438;21.408;2023-10-19T01:01:55;7.25;;;3.42;;
78312;SDS011;67568;47.438;21.408;2023-10-19T01:04:23;7.93;;;4.07;;
78312;SDS011;67568;47.438;21.408;2023-10-19T01:06:55;13.07;;;5.00;;
78312;SDS011;67568;47.438;21.408;2023-10-19T01:09:22;8.93;;;4.70;;
78312;SDS011;67568;47.438;21.408;2023-10-19T01:11:49;15.73;;;4.72;;
78312;SDS011;67568;47.438;21.408;2023-10-19T01:14:22;13.02;;;4.03;;
78312;SDS011;67568;47.438;21.408;2023-10-19T01:16:49;8.07;;;4.10;;
78312;SDS011;67568;47.438;21.408;2023-10-19T01:19:16;8.05;;;3.40;;
78312;SDS011;67568;47.438;21.408;2023-10-19T01:21:43;8.60;;;3.93;;
78312;SDS011;67568;47.438;21.408;2023-10-19T01:24:09;7.47;;;4.57;;
78312;SDS011;67568;47.438;21.408;2023-10-19T01:26:36;6.55;;;3.75;;
78312;SDS011;67568;47.438;21.408;2023-10-19T01:29:03;6.93;;;3.60;;
78312;SDS011;67568;47.438;21.408;2023-10-19T01:31:30;6.65;;;3.95;;
78312;SDS011;67568;47.438;21.408;2023-10-19T01:33:59;6.10;;;2.97;;
78312;SDS011;67568;47.438;21.408;2023-10-19T01:36:30;7.47;;;3.95;;
78312;SDS011;67568;47.438;21.408;2023-10-19T01:38:57;7.63;;;3.10;;
78312;SDS011;67568;47.438;21.408;2023-10-19T01:41:27;7.30;;;4.53;;
78312;SDS011;67568;47.438;21.408;2023-10-19T01:43:56;9.30;;;3.20;;
78312;SDS011;67568;47.438;21.408;2023-10-19T01:46:23;6.63;;;3.67;;
78312;SDS011;67568;47.438;21.408;2023-10-19T01:48:51;6.97;;;3.30;;
78312;SDS011;67568;47.438;21.408;2023-10-19T01:51:19;5.82;;;3.33;;
78312;SDS011;67568;47.438;21.408;2023-10-19T01:53:46;5.82;;;2.97;;
78312;SDS011;67568;47.438;21.408;2023-10-19T01:56:16;7.03;;;3.28;;
78312;SDS011;67568;47.438;21.408;2023-10-19T01:58:44;5.53;;;2.97;;
78312;SDS011;67568;47.438;21.408;2023-10-19T02:01:13;9.90;;;3.65;;
78312;SDS011;67568;47.438;21.408;2023-10-19T02:03:43;11.43;;;4.10;;
78312;SDS011;67568;47.438;21.408;2023-10-19T02:06:11;5.97;;;3.20;;
78312;SDS011;67568;47.438;21.408;2023-10-19T02:08:41;7.70;;;2.65;;
78312;SDS011;67568;47.438;21.408;2023-10-19T02:11:11;10.50;;;3.77;;
78312;SDS011;67568;47.438;21.408;2023-10-19T02:13:37;5.53;;;3.00;;
78312;SDS011;67568;47.438;21.408;2023-10-19T02:16:04;8.13;;;4.55;;
78312;SDS011;67568;47.438;21.408;2023-10-19T02:18:31;5.30;;;2.42;;
78312;SDS011;67568;47.438;21.408;2023-10-19T02:20:58;7.05;;;3.45;;
78312;SDS011;67568;47.438;21.408;2023-10-19T02:23:26;8.33;;;2.67;;
78312;SDS011;67568;47.438;21.408;2023-10-19T02:25:53;5.93;;;2.42;;
78312;SDS011;67568;47.438;21.408;2023-10-19T02:28:23;7.75;;;3.17;;
78312;SDS011;67568;47.438;21.408;2023-10-19T02:30:53;8.90;;;3.55;;
78312;SDS011;67568;47.438;21.408;2023-10-19T02:33:20;4.05;;;2.20;;
78312;SDS011;67568;47.438;21.408;2023-10-19T02:35:46;7.10;;;2.67;;
78312;SDS011;67568;47.438;21.408;2023-10-19T02:38:13;10.13;;;2.75;;
78312;SDS011;67568;47.438;21.408;2023-10-19T02:40:40;6.65;;;3.38;;
78312;SDS011;67568;47.438;21.408;2023-10-19T02:43:07;7.32;;;2.85;;
78312;SDS011;67568;47.438;21.408;2023-10-19T02:45:34;8.27;;;3.92;;
78312;SDS011;67568;47.438;21.408;2023-10-19T02:48:01;5.47;;;2.80;;
78312;SDS011;67568;47.438;21.408;2023-10-19T02:50:27;6.10;;;2.92;;
78312;SDS011;67568;47.438;21.408;2023-10-19T02:52:54;8.80;;;3.22;;
78312;SDS011;67568;47.438;21.408;2023-10-19T02:55:21;6.00;;;2.28;;
78312;SDS011;67568;47.438;21.408;2023-10-19T02:57:48;9.02;;;3.83;;
78312;SDS011;67568;47.438;21.408;2023-10-19T03:00:15;7.87;;;2.87;;
78312;SDS011;67568;47.438;21.408;2023-10-19T03:02:42;7.63;;;3.28;;
78312;SDS011;67568;47.438;21.408;2023-10-19T03:05:08;11.57;;;4.53;;
78312;SDS011;67568;47.438;21.408;2023-10-19T03:07:35;8.27;;;3.33;;
78312;SDS011;67568;47.438;21.408;2023-10-19T03:10:02;7.05;;;3.20;;
78312;SDS011;67568;47.438;21.408;2023-10-19T03:12:29;4.90;;;2.00;;
78312;SDS011;67568;47.438;21.408;2023-10-19T03:14:56;6.45;;;3.20;;
78312;SDS011;67568;47.438;21.408;2023-10-19T03:17:23;6.07;;;2.97;;
78312;SDS011;67568;47.438;21.408;2023-10-19T03:19:50;5.75;;;3.28;;
78312;SDS011;67568;47.438;21.408;2023-10-19T03:22:17;6.72;;;3.08;;
78312;SDS011;67568;47.438;21.408;2023-10-19T03:24:44;8.33;;;3.80;;
78312;SDS011;67568;47.438;21.408;2023-10-19T03:27:11;4.90;;;2.95;;
78312;SDS011;67568;47.438;21.408;2023-10-19T03:29:40;10.75;;;2.65;;
78312;SDS011;67568;47.438;21.408;2023-10-19T03:32:07;6.05;;;3.22;;
78312;SDS011;67568;47.438;21.408;2023-10-19T03:34:34;5.55;;;2.33;;
78312;SDS011;67568;47.438;21.408;2023-10-19T03:37:05;6.03;;;3.43;;
78312;SDS011;67568;47.438;21.408;2023-10-19T03:39:35;6.47;;;3.05;;
78312;SDS011;67568;47.438;21.408;2023-10-19T03:42:01;6.30;;;3.13;;
78312;SDS011;67568;47.438;21.408;2023-10-19T03:44:28;4.78;;;2.80;;
78312;SDS011;67568;47.438;21.408;2023-10-19T03:46:55;7.55;;;3.17;;
78312;SDS011;67568;47.438;21.408;2023-10-19T03:49:22;6.30;;;3.13;;
78312;SDS011;67568;47.438;21.408;2023-10-19T03:51:52;14.65;;;3.28;;
78312;SDS011;67568;47.438;21.408;2023-10-19T03:54:19;4.70;;;2.17;;
78312;SDS011;67568;47.438;21.408;2023-10-19T03:56:45;5.95;;;3.05;;
78312;SDS011;67568;47.438;21.408;2023-10-19T03:59:12;7.70;;;3.33;;
78312;SDS011;67568;47.438;21.408;2023-10-19T04:01:39;4.33;;;2.77;;
78312;SDS011;67568;47.438;21.408;2023-10-19T04:04:05;5.05;;;2.47;;
78312;SDS011;67568;47.438;21.408;2023-10-19T04:06:32;6.68;;;4.03;;
78312;SDS011;67568;47.438;21.408;2023-10-19T04:08:59;7.72;;;3.25;;
78312;SDS011;67568;47.438;21.408;2023-10-19T04:11:26;5.13;;;2.83;;
78312;SDS011;67568;47.438;21.408;2023-10-19T04:13:53;6.87;;;3.37;;
78312;SDS011;67568;47.438;21.408;2023-10-19T04:16:19;6.90;;;3.05;;
78312;SDS011;67568;47.438;21.408;2023-10-19T04:18:47;4.55;;;2.42;;
78312;SDS011;67568;47.438;21.408;2023-10-19T04:21:14;5.53;;;2.30;;
78312;SDS011;67568;47.438;21.408;2023-10-19T04:23:40;8.43;;;4.03;;
78312;SDS011;67568;47.438;21.408;2023-10-19T04:26:07;5.57;;;2.43;;
78312;SDS011;67568;47.438;21.408;2023-10-19T04:28:34;6.80;;;2.53;;
78312;SDS011;67568;47.438;21.408;2023-10-19T04:31:01;9.35;;;2.88;;
78312;SDS011;67568;47.438;21.408;2023-10-19T04:33:31;5.15;;;2.58;;
78312;SDS011;67568;47.438;21.408;2023-10-19T04:35:57;7.38;;;3.72;;
78312;SDS011;67568;47.438;21.408;2023-10-19T04:38:24;7.97;;;2.93;;
78312;SDS011;67568;47.438;21.408;2023-10-19T04:40:51;5.38;;;2.70;;
78312;SDS011;67568;47.438;21.408;2023-10-19T04:43:18;5.82;;;3.17;;
78312;SDS011;67568;47.438;21.408;2023-10-19T04:45:44;8.80;;;2.97;;
78312;SDS011;67568;47.438;21.408;2023-10-19T04:48:11;2.97;;;1.73;;
78312;SDS011;67568;47.438;21.408;2023-10-19T04:50:38;8.60;;;3.43;;
78312;SDS011;67568;47.438;21.408;2023-10-19T04:53:05;5.53;;;2.08;;
78312;SDS011;67568;47.438;21.408;2023-10-19T04:55:32;7.20;;;3.17;;
78312;SDS011;67568;47.438;21.408;2023-10-19T04:57:58;5.45;;;2.60;;
78312;SDS011;67568;47.438;21.408;2023-10-19T05:00:25;7.45;;;2.88;;
78312;SDS011;67568;47.438;21.408;2023-10-19T05:02:52;5.30;;;2.83;;
78312;SDS011;67568;47.438;21.408;2023-10-19T05:05:19;5.63;;;2.33;;
78312;SDS011;67568;47.438;21.408;2023-10-19T05:07:46;4.45;;;2.63;;
78312;SDS011;67568;47.438;21.408;2023-10-19T05:10:12;6.07;;;2.83;;
78312;SDS011;67568;47.438;21.408;2023-10-19T05:12:39;6.03;;;3.28;;
78312;SDS011;67568;47.438;21.408;2023-10-19T05:15:06;5.30;;;2.80;;
78312;SDS011;67568;47.438;21.408;2023-10-19T05:17:33;8.27;;;2.17;;
78312;SDS011;67568;47.438;21.408;2023-10-19T05:20:00;4.65;;;2.38;;
78312;SDS011;67568;47.438;21.408;2023-10-19T05:22:27;6.38;;;2.88;;
78312;SDS011;67568;47.438;21.408;2023-10-19T05:24:54;9.05;;;2.47;;
78312;SDS011;67568;47.438;21.408;2023-10-19T05:27:20;4.57;;;2.37;;
78312;SDS011;67568;47.438;21.408;2023-10-19T05:29:48;7.55;;;3.83;;
78312;SDS011;67568;47.438;21.408;2023-10-19T05:32:15;3.55;;;2.05;;
78312;SDS011;67568;47.438;21.408;2023-10-19T05:34:41;5.35;;;2.67;;
78312;SDS011;67568;47.438;21.408;2023-10-19T05:37:10;6.53;;;3.05;;
78312;SDS011;67568;47.438;21.408;2023-10-19T05:39:37;5.87;;;2.53;;
78312;SDS011;67568;47.438;21.408;2023-10-19T05:42:03;4.05;;;2.03;;
78312;SDS011;67568;47.438;21.408;2023-10-19T05:44:30;4.40;;;1.98;;
78312;SDS011;67568;47.438;21.408;2023-10-19T05:46:58;4.82;;;2.00;;
78312;SDS011;67568;47.438;21.408;2023-10-19T05:49:26;7.10;;;2.88;;
78312;SDS011;67568;47.438;21.408;2023-10-19T05:51:54;13.33;;;4.40;;
78312;SDS011;67568;47.438;21.408;2023-10-19T05:54:21;9.80;;;5.10;;
78312;SDS011;67568;47.438;21.408;2023-10-19T05:56:51;9.98;;;3.83;;
78312;SDS011;67568;47.438;21.408;2023-10-19T05:59:28;6.95;;;3.67;;
78312;SDS011;67568;47.438;21.408;2023-10-19T06:01:57;5.60;;;2.67;;
78312;SDS011;67568;47.438;21.408;2023-10-19T06:04:35;9.30;;;4.00;;
78312;SDS011;67568;47.438;21.408;2023-10-19T06:07:05;4.25;;;2.33;;
78312;SDS011;67568;47.438;21.408;2023-10-19T06:09:32;4.88;;;2.63;;
78312;SDS011;67568;47.438;21.408;2023-10-19T06:12:02;5.13;;;2.45;;
78312;SDS011;67568;47.438;21.408;2023-10-19T06:14:33;7.15;;;3.20;;
78312;SDS011;67568;47.438;21.408;2023-10-19T06:17:08;4.30;;;2.27;;
78312;SDS011;67568;47.438;21.408;2023-10-19T06:19:39;4.85;;;2.35;;
78312;SDS011;67568;47.438;21.408;2023-10-19T06:22:12;3.65;;;2.00;;
78312;SDS011;67568;47.438;21.408;2023-10-19T06:24:48;5.18;;;2.35;;
78312;SDS011;67568;47.438;21.408;2023-10-19T06:27:24;6.30;;;2.75;;
78312;SDS011;67568;47.438;21.408;2023-10-19T06:29:53;6.37;;;2.63;;
78312;SDS011;67568;47.438;21.408;2023-10-19T06:32:20;3.80;;;1.98;;
78312;SDS011;67568;47.438;21.408;2023-10-19T06:34:48;3.70;;;1.77;;
78312;SDS011;67568;47.438;21.408;2023-10-19T06:37:18;3.88;;;1.98;;
78312;SDS011;67568;47.438;21.408;2023-10-19T06:39:56;4.07;;;2.03;;
78312;SDS011;67568;47.438;21.408;2023-10-19T06:42:26;4.37;;;2.27;;
78312;SDS011;67568;47.438;21.408;2023-10-19T06:44:53;7.93;;;2.50;;
78312;SDS011;67568;47.438;21.408;2023-10-19T06:47:20;5.93;;;2.85;;
78312;SDS011;67568;47.438;21.408;2023-10-19T06:49:46;4.20;;;2.22;;
78312;SDS011;67568;47.438;21.408;2023-10-19T06:52:13;7.70;;;3.03;;
78312;SDS011;67568;47.438;21.408;2023-10-19T06:54:40;5.30;;;2.43;;
78312;SDS011;67568;47.438;21.408;2023-10-19T06:57:07;5.70;;;2.15;;
78312;SDS011;67568;47.438;21.408;2023-10-19T06:59:35;3.83;;;2.13;;
78312;SDS011;67568;47.438;21.408;2023-10-19T07:02:02;5.55;;;2.30;;
78312;SDS011;67568;47.438;21.408;2023-10-19T07:04:29;4.60;;;1.85;;
78312;SDS011;67568;47.438;21.408;2023-10-19T07:06:56;3.70;;;2.00;;
78312;SDS011;67568;47.438;21.408;2023-10-19T07:09:24;7.32;;;2.40;;
78312;SDS011;67568;47.438;21.408;2023-10-19T07:11:51;4.90;;;2.50;;
78312;SDS011;67568;47.438;21.408;2023-10-19T07:14:18;3.58;;;1.98;;
78312;SDS011;67568;47.438;21.408;2023-10-19T07:16:46;3.83;;;1.63;;
78312;SDS011;67568;47.438;21.408;2023-10-19T07:19:13;4.87;;;2.50;;
78312;SDS011;67568;47.438;21.408;2023-10-19T07:21:39;5.95;;;2.80;;
78312;SDS011;67568;47.438;21.408;2023-10-19T07:24:06;6.32;;;2.53;;
78312;SDS011;67568;47.438;21.408;2023-10-19T07:26:34;4.93;;;2.15;;
78312;SDS011;67568;47.438;21.408;2023-10-19T07:29:02;4.95;;;2.05;;
78312;SDS011;67568;47.438;21.408;2023-10-19T07:31:29;6.47;;;2.63;;
78312;SDS011;67568;47.438;21.408;2023-10-19T07:33:56;6.20;;;2.97;;
78312;SDS011;67568;47.438;21.408;2023-10-19T07:36:23;3.85;;;1.65;;
78312;SDS011;67568;47.438;21.408;2023-10-19T07:38:59;4.25;;;2.22;;
78312;SDS011;67568;47.438;21.408;2023-10-19T07:41:26;6.47;;;2.47;;
78312;SDS011;67568;47.438;21.408;2023-10-19T07:43:52;5.30;;;2.17;;
78312;SDS011;67568;47.438;21.408;2023-10-19T07:46:19;4.50;;;2.03;;
78312;SDS011;67568;47.438;21.408;2023-10-19T07:48:46;5.22;;;1.98;;
78312;SDS011;67568;47.438;21.408;2023-10-19T07:51:13;5.25;;;2.05;;
78312;SDS011;67568;47.438;21.408;2023-10-19T07:53:40;3.78;;;2.00;;
78312;SDS011;67568;47.438;21.408;2023-10-19T07:56:06;4.03;;;2.00;;
78312;SDS011;67568;47.438;21.408;2023-10-19T07:58:33;6.18;;;2.45;;
78312;SDS011;67568;47.438;21.408;2023-10-19T08:01:00;5.78;;;1.98;;
78312;SDS011;67568;47.438;21.408;2023-10-19T08:03:27;4.45;;;1.65;;
78312;SDS011;67568;47.438;21.408;2023-10-19T08:05:54;6.70;;;2.28;;
78312;SDS011;67568;47.438;21.408;2023-10-19T08:08:20;3.27;;;2.03;;
78312;SDS011;67568;47.438;21.408;2023-10-19T08:10:47;5.20;;;2.47;;
78312;SDS011;67568;47.438;21.408;2023-10-19T08:13:14;4.38;;;2.10;;
78312;SDS011;67568;47.438;21.408;2023-10-19T08:15:41;5.68;;;2.17;;
78312;SDS011;67568;47.438;21.408;2023-10-19T08:18:09;2.95;;;1.52;;
78312;SDS011;67568;47.438;21.408;2023-10-19T08:20:36;3.97;;;1.97;;
78312;SDS011;67568;47.438;21.408;2023-10-19T08:23:02;5.18;;;1.73;;
78312;SDS011;67568;47.438;21.408;2023-10-19T08:25:29;5.20;;;1.90;;
78312;SDS011;67568;47.438;21.408;2023-10-19T08:28:16;4.95;;;1.75;;
78312;SDS011;67568;47.438;21.408;2023-10-19T08:30:45;3.90;;;1.92;;
78312;SDS011;67568;47.438;21.408;2023-10-19T08:33:11;4.30;;;2.00;;
78312;SDS011;67568;47.438;21.408;2023-10-19T08:35:38;4.20;;;2.08;;
78312;SDS011;67568;47.438;21.408;2023-10-19T08:38:06;6.88;;;2.65;;
78312;SDS011;67568;47.438;21.408;2023-10-19T08:40:33;4.68;;;1.77;;
78312;SDS011;67568;47.438;21.408;2023-10-19T08:43:00;4.72;;;2.30;;
78312;SDS011;67568;47.438;21.408;2023-10-19T08:45:27;3.27;;;1.83;;
78312;SDS011;67568;47.438;21.408;2023-10-19T08:47:58;3.90;;;2.17;;
78312;SDS011;67568;47.438;21.408;2023-10-19T08:50:27;4.25;;;1.65;;
78312;SDS011;67568;47.438;21.408;2023-10-19T08:52:58;5.10;;;2.03;;
78312;SDS011;67568;47.438;21.408;2023-10-19T08:55:26;4.43;;;1.52;;
78312;SDS011;67568;47.438;21.408;2023-10-19T08:58:14;5.10;;;2.27;;
78312;SDS011;67568;47.438;21.408;2023-10-19T09:00:47;5.03;;;2.65;;
78312;SDS011;67568;47.438;21.408;2023-10-19T09:03:16;4.60;;;2.20;;
78312;SDS011;67568;47.438;21.408;2023-10-19T09:05:44;3.70;;;2.05;;
78312;SDS011;67568;47.438;21.408;2023-10-19T09:08:15;6.28;;;2.88;;
78312;SDS011;67568;47.438;21.408;2023-10-19T09:10:45;4.80;;;2.10;;
78312;SDS011;67568;47.438;21.408;2023-10-19T09:13:13;4.32;;;1.98;;
78312;SDS011;67568;47.438;21.408;2023-10-19T09:15:40;5.57;;;2.13;;
78312;SDS011;67568;47.438;21.408;2023-10-19T09:18:16;4.32;;;2.13;;
78312;SDS011;67568;47.438;21.408;2023-10-19T09:20:44;6.47;;;2.00;;
78312;SDS011;67568;47.438;21.408;2023-10-19T09:23:19;5.10;;;2.40;;
78312;SDS011;67568;47.438;21.408;2023-10-19T09:25:46;5.22;;;2.08;;
78312;SDS011;67568;47.438;21.408;2023-10-19T09:28:14;5.25;;;2.28;;
78312;SDS011;67568;47.438;21.408;2023-10-19T09:30:44;6.68;;;2.35;;
78312;SDS011;67568;47.438;21.408;2023-10-19T09:33:10;4.50;;;1.88;;
78312;SDS011;67568;47.438;21.408;2023-10-19T09:35:40;5.73;;;2.30;;
78312;SDS011;67568;47.438;21.408;2023-10-19T09:38:06;3.92;;;2.00;;
78312;SDS011;67568;47.438;21.408;2023-10-19T09:40:33;4.55;;;2.22;;
78312;SDS011;67568;47.438;21.408;2023-10-19T09:43:04;3.97;;;1.58;;
78312;SDS011;67568;47.438;21.408;2023-10-19T09:45:33;6.03;;;2.10;;
78312;SDS011;67568;47.438;21.408;2023-10-19T09:48:06;3.50;;;1.43;;
78312;SDS011;67568;47.438;21.408;2023-10-19T09:50:34;3.60;;;1.65;;
78312;SDS011;67568;47.438;21.408;2023-10-19T09:53:01;3.97;;;1.88;;
78312;SDS011;67568;47.438;21.408;2023-10-19T09:55:33;4.63;;;1.98;;
78312;SDS011;67568;47.438;21.408;2023-10-19T09:58:06;3.17;;;1.52;;
78312;SDS011;67568;47.438;21.408;2023-10-19T10:00:40;3.30;;;1.80;;
78312;SDS011;67568;47.438;21.408;2023-10-19T10:03:41;4.57;;;2.03;;
78312;SDS011;67568;47.438;21.408;2023-10-19T10:06:12;4.90;;;1.90;;
78312;SDS011;67568;47.438;21.408;2023-10-19T10:08:43;4.95;;;2.50;;
78312;SDS011;67568;47.438;21.408;2023-10-19T10:13:51;4.80;;;1.87;;
78312;SDS011;67568;47.438;21.408;2023-10-19T10:16:23;4.85;;;1.88;;
78312;SDS011;67568;47.438;21.408;2023-10-19T10:18:51;7.40;;;3.22;;
78312;SDS011;67568;47.438;21.408;2023-10-19T10:21:27;4.78;;;2.33;;
78312;SDS011;67568;47.438;21.408;2023-10-19T10:24:02;4.20;;;1.88;;
78312;SDS011;67568;47.438;21.408;2023-10-19T10:26:30;5.73;;;2.57;;
78312;SDS011;67568;47.438;21.408;2023-10-19T10:29:21;3.55;;;1.50;;
78312;SDS011;67568;47.438;21.408;2023-10-19T10:31:48;5.55;;;2.05;;
78312;SDS011;67568;47.438;21.408;2023-10-19T10:37:04;4.57;;;2.03;;
78312;SDS011;67568;47.438;21.408;2023-10-19T10:39:32;5.53;;;2.07;;
78312;SDS011;67568;47.438;21.408;2023-10-19T10:42:00;5.32;;;2.53;;
78312;SDS011;67568;47.438;21.408;2023-10-19T10:47:15;4.68;;;1.73;;
78312;SDS011;67568;47.438;21.408;2023-10-19T10:52:32;2.70;;;1.40;;
78312;SDS011;67568;47.438;21.408;2023-10-19T10:57:45;2.80;;;1.40;;
78312;SDS011;67568;47.438;21.408;2023-10-19T11:00:13;4.10;;;1.70;;
78312;SDS011;67568;47.438;21.408;2023-10-19T11:02:41;4.18;;;1.50;;
78312;SDS011;67568;47.438;21.408;2023-10-19T11:05:10;4.50;;;1.23;;
78312;SDS011;67568;47.438;21.408;2023-10-19T11:07:38;4.97;;;2.10;;
78312;SDS011;67568;47.438;21.408;2023-10-19T11:10:06;3.58;;;1.60;;
78312;SDS011;67568;47.438;21.408;2023-10-19T11:12:33;3.63;;;1.63;;
78312;SDS011;67568;47.438;21.408;2023-10-19T11:15:02;3.08;;;1.50;;
78312;SDS011;67568;47.438;21.408;2023-10-19T11:17:29;4.83;;;1.97;;
78312;SDS011;67568;47.438;21.408;2023-10-19T11:19:56;3.90;;;1.40;;
78312;SDS011;67568;47.438;21.408;2023-10-19T11:22:24;3.97;;;1.45;;
78312;SDS011;67568;47.438;21.408;2023-10-19T11:24:56;4.38;;;1.80;;
78312;SDS011;67568;47.438;21.408;2023-10-19T11:27:46;4.18;;;1.70;;
78312;SDS011;67568;47.438;21.408;2023-10-19T11:30:13;3.17;;;1.40;;
78312;SDS011;67568;47.438;21.408;2023-10-19T11:32:48;3.42;;;1.52;;
78312;SDS011;67568;47.438;21.408;2023-10-19T11:35:15;4.90;;;2.08;;
78312;SDS011;67568;47.438;21.408;2023-10-19T11:37:46;3.67;;;1.38;;
78312;SDS011;67568;47.438;21.408;2023-10-19T11:40:16;5.55;;;1.92;;
78312;SDS011;67568;47.438;21.408;2023-10-19T11:42:43;5.07;;;1.83;;
78312;SDS011;67568;47.438;21.408;2023-10-19T11:45:10;4.57;;;1.80;;
78312;SDS011;67568;47.438;21.408;2023-10-19T11:47:37;4.82;;;1.60;;
78312;SDS011;67568;47.438;21.408;2023-10-19T11:50:04;5.82;;;1.80;;
78312;SDS011;67568;47.438;21.408;2023-10-19T11:52:32;4.70;;;1.58;;
78312;SDS011;67568;47.438;21.408;2023-10-19T11:54:59;4.37;;;1.77;;
78312;SDS011;67568;47.438;21.408;2023-10-19T11:57:25;7.25;;;1.65;;
78312;SDS011;67568;47.438;21.408;2023-10-19T11:59:52;4.00;;;1.70;;
78312;SDS011;67568;47.438;21.408;2023-10-19T12:02:22;4.53;;;1.77;;
78312;SDS011;67568;47.438;21.408;2023-10-19T12:04:49;7.25;;;1.83;;
78312;SDS011;67568;47.438;21.408;2023-10-19T12:07:16;5.87;;;2.33;;
78312;SDS011;67568;47.438;21.408;2023-10-19T12:54:29;2.67;;;1.48;;
78312;SDS011;67568;47.438;21.408;2023-10-19T12:56:57;3.45;;;1.55;;
78312;SDS011;67568;47.438;21.408;2023-10-19T12:59:23;4.43;;;1.80;;
78312;SDS011;67568;47.438;21.408;2023-10-19T13:01:50;8.75;;;2.17;;
78312;SDS011;67568;47.438;21.408;2023-10-19T13:04:17;5.07;;;1.67;;
78312;SDS011;67568;47.438;21.408;2023-10-19T13:06:44;4.32;;;2.00;;
78312;SDS011;67568;47.438;21.408;2023-10-19T13:09:11;4.25;;;1.85;;
78312;SDS011;67568;47.438;21.408;2023-10-19T13:11:37;4.97;;;1.57;;
78312;SDS011;67568;47.438;21.408;2023-10-19T13:14:07;7.55;;;3.53;;
78312;SDS011;67568;47.438;21.408;2023-10-19T13:16:35;6.55;;;3.05;;
